Weather at Sematan Airport

Public forecast

Using degrees Celsius for public forecast. Weather courtesy of forecast.io.

Closest aviation weather report (METAR) to Sematan Airport

Closest report is Kuching International Airport, 40.3 nm (74.6 km) ESE.

2024/05/24 00:00 (retrieved 19 minutes ago)

WBGG 240000Z VRB02KT 9999 FEW010 26/25 Q1009 NOSIG

Closest aviation forecast (TAF) to Sematan Airport

Forecast is more than 6 hours old.

Closest forecast is Aden Adde International Airport, 3,867.8 nm (7,163.3 km) W.

2024/05/23 12:54 (retrieved 11 hours ago)

TAF TAF HCMM 231100Z 2312/2418 21013KT 9999 SCT024 PROB30 TEMPO 2314/2321 8000 -SHRA BKN023 BECMG 2402/2404 22008KT 9999 NSW BKN020 BECMG 2406/2409 23015KT SCT024